sensor_id;sensor_type;location;lat;lon;timestamp;pressure;altitude;pressure_sealevel;temperature;humidity
69624;BME280;56843;52.020;5.670;2023-06-24T00:01:19;102264.78;;;20.64;58.10
69624;BME280;56843;52.020;5.670;2023-06-24T00:02:50;102258.56;;;20.64;58.11
69624;BME280;56843;52.020;5.670;2023-06-24T00:04:21;102255.06;;;20.63;58.01
69624;BME280;56843;52.020;5.670;2023-06-24T00:05:53;102262.06;;;20.64;58.08
69624;BME280;56843;52.020;5.670;2023-06-24T00:07:27;102260.47;;;20.63;57.78
69624;BME280;56843;52.020;5.670;2023-06-24T00:08:57;102250.69;;;20.59;57.78
69624;BME280;56843;52.020;5.670;2023-06-24T00:10:31;102261.22;;;20.60;57.83
69624;BME280;56843;52.020;5.670;2023-06-24T00:12:02;102262.75;;;20.61;58.16
69624;BME280;56843;52.020;5.670;2023-06-24T00:13:32;102259.25;;;20.61;58.34
69624;BME280;56843;52.020;5.670;2023-06-24T00:15:03;102261.22;;;20.60;58.35
69624;BME280;56843;52.020;5.670;2023-06-24T00:16:34;102258.84;;;20.59;58.26
69624;BME280;56843;52.020;5.670;2023-06-24T00:18:06;102264.25;;;20.59;58.35
69624;BME280;56843;52.020;5.670;2023-06-24T00:19:36;102260.00;;;20.58;58.35
69624;BME280;56843;52.020;5.670;2023-06-24T00:21:07;102263.50;;;20.58;58.50
69624;BME280;56843;52.020;5.670;2023-06-24T00:22:38;102259.19;;;20.57;58.63
69624;BME280;56843;52.020;5.670;2023-06-24T00:24:14;102265.75;;;20.56;58.35
69624;BME280;56843;52.020;5.670;2023-06-24T00:25:44;102269.63;;;20.55;58.72
69624;BME280;56843;52.020;5.670;2023-06-24T00:27:15;102266.91;;;20.55;58.30
69624;BME280;56843;52.020;5.670;2023-06-24T00:28:45;102275.06;;;20.55;58.71
69624;BME280;56843;52.020;5.670;2023-06-24T00:30:16;102269.63;;;20.55;58.69
69624;BME280;56843;52.020;5.670;2023-06-24T00:31:46;102270.75;;;20.54;58.76
69624;BME280;56843;52.020;5.670;2023-06-24T00:33:17;102274.63;;;20.53;58.46
69624;BME280;56843;52.020;5.670;2023-06-24T00:34:49;102272.69;;;20.54;58.81
69624;BME280;56843;52.020;5.670;2023-06-24T00:36:21;102267.28;;;20.54;58.91
69624;BME280;56843;52.020;5.670;2023-06-24T00:37:51;102274.63;;;20.53;58.86
69624;BME280;56843;52.020;5.670;2023-06-24T00:39:28;102277.34;;;20.53;58.47
69624;BME280;56843;52.020;5.670;2023-06-24T00:40:59;102273.03;;;20.52;58.91
69624;BME280;56843;52.020;5.670;2023-06-24T00:42:29;102276.53;;;20.52;58.83
69624;BME280;56843;52.020;5.670;2023-06-24T00:44:00;102275.75;;;20.52;58.44
69624;BME280;56843;52.020;5.670;2023-06-24T00:45:31;102273.03;;;20.52;58.93
69624;BME280;56843;52.020;5.670;2023-06-24T00:47:02;102285.03;;;20.51;58.96
69624;BME280;56843;52.020;5.670;2023-06-24T00:48:33;102286.59;;;20.52;59.01
69624;BME280;56843;52.020;5.670;2023-06-24T00:50:04;102274.94;;;20.51;58.82
69624;BME280;56843;52.020;5.670;2023-06-24T00:51:35;102264.47;;;20.50;58.75
69624;BME280;56843;52.020;5.670;2023-06-24T00:53:06;102272.59;;;20.50;59.05
69624;BME280;56843;52.020;5.670;2023-06-24T00:54:36;102279.19;;;20.49;58.99
69624;BME280;56843;52.020;5.670;2023-06-24T00:56:07;102274.09;;;20.47;58.66
69624;BME280;56843;52.020;5.670;2023-06-24T00:57:37;102289.63;;;20.47;59.23
69624;BME280;56843;52.020;5.670;2023-06-24T00:59:10;102295.81;;;20.47;59.24
69624;BME280;56843;52.020;5.670;2023-06-24T01:02:50;102290.22;;;20.40;59.05
69624;BME280;56843;52.020;5.670;2023-06-24T01:04:21;102291.00;;;20.41;59.33
69624;BME280;56843;52.020;5.670;2023-06-24T01:05:53;102290.22;;;20.40;59.21
69624;BME280;56843;52.020;5.670;2023-06-24T01:07:24;102292.94;;;20.40;59.17
69624;BME280;56843;52.020;5.670;2023-06-24T01:08:58;102286.72;;;20.40;59.00
69624;BME280;56843;52.020;5.670;2023-06-24T01:10:30;102289.00;;;20.38;58.92
69624;BME280;56843;52.020;5.670;2023-06-24T01:12:01;102288.22;;;20.37;59.16
69624;BME280;56843;52.020;5.670;2023-06-24T01:13:34;102282.00;;;20.37;59.17
69624;BME280;56843;52.020;5.670;2023-06-24T01:15:06;102279.28;;;20.37;59.62
69624;BME280;56843;52.020;5.670;2023-06-24T01:18:45;102277.97;;;20.31;59.64
69624;BME280;56843;52.020;5.670;2023-06-24T01:24:31;102268.16;;;20.26;59.81
69624;BME280;56843;52.020;5.670;2023-06-24T01:33:46;102267.50;;;20.14;59.79
69624;BME280;56843;52.020;5.670;2023-06-24T01:35:28;102273.69;;;20.14;60.25
69624;BME280;56843;52.020;5.670;2023-06-24T01:37:31;102267.50;;;20.14;60.10
69624;BME280;56843;52.020;5.670;2023-06-24T01:39:08;102270.03;;;20.07;59.95
69624;BME280;56843;52.020;5.670;2023-06-24T01:40:43;102266.16;;;20.08;60.38
69624;BME280;56843;52.020;5.670;2023-06-24T01:42:15;102266.16;;;20.08;60.01
69624;BME280;56843;52.020;5.670;2023-06-24T01:43:47;102266.53;;;20.06;60.43
69624;BME280;56843;52.020;5.670;2023-06-24T01:45:29;102261.47;;;20.05;60.58
69624;BME280;56843;52.020;5.670;2023-06-24T01:47:04;102262.59;;;20.04;60.38
69624;BME280;56843;52.020;5.670;2023-06-24T01:48:38;102253.66;;;20.03;60.32
69624;BME280;56843;52.020;5.670;2023-06-24T01:50:12;102256.72;;;20.02;60.30
69624;BME280;56843;52.020;5.670;2023-06-24T01:51:45;102256.72;;;20.02;60.76
69624;BME280;56843;52.020;5.670;2023-06-24T01:53:20;102260.56;;;20.01;60.63
69624;BME280;56843;52.020;5.670;2023-06-24T01:54:52;102260.56;;;20.01;60.49
69624;BME280;56843;52.020;5.670;2023-06-24T01:56:25;102256.28;;;20.00;60.88
69624;BME280;56843;52.020;5.670;2023-06-24T01:57:57;102246.56;;;19.99;60.75
69624;BME280;56843;52.020;5.670;2023-06-24T01:59:30;102248.84;;;19.97;60.71
69624;BME280;56843;52.020;5.670;2023-06-24T02:01:03;102246.94;;;19.97;60.71
69624;BME280;56843;52.020;5.670;2023-06-24T02:02:35;102247.28;;;19.96;61.08
69624;BME280;56843;52.020;5.670;2023-06-24T02:04:08;102252.72;;;19.96;60.80
69624;BME280;56843;52.020;5.670;2023-06-24T02:05:40;102258.47;;;19.94;61.20
69624;BME280;56843;52.020;5.670;2023-06-24T02:07:12;102252.28;;;19.94;61.10
69624;BME280;56843;52.020;5.670;2023-06-24T02:08:45;102248.78;;;19.93;61.03
69624;BME280;56843;52.020;5.670;2023-06-24T02:10:18;102240.22;;;19.91;61.28
69624;BME280;56843;52.020;5.670;2023-06-24T02:11:50;102250.25;;;19.91;61.22
69624;BME280;56843;52.020;5.670;2023-06-24T02:13:21;102249.47;;;19.90;60.98
69624;BME280;56843;52.020;5.670;2023-06-24T02:14:54;102240.91;;;19.88;61.58
69624;BME280;56843;52.020;5.670;2023-06-24T02:16:25;102242.81;;;19.88;61.41
69624;BME280;56843;52.020;5.670;2023-06-24T02:17:59;102246.69;;;19.87;61.29
69624;BME280;56843;52.020;5.670;2023-06-24T02:19:33;102248.97;;;19.85;61.52
69624;BME280;56843;52.020;5.670;2023-06-24T02:21:05;102241.94;;;19.84;61.29
69624;BME280;56843;52.020;5.670;2023-06-24T02:22:38;102245.03;;;19.82;61.37
69624;BME280;56843;52.020;5.670;2023-06-24T02:24:10;102240.72;;;19.81;61.34
69624;BME280;56843;52.020;5.670;2023-06-24T02:25:42;102241.88;;;19.80;61.26
69624;BME280;56843;52.020;5.670;2023-06-24T02:27:13;102243.78;;;19.79;61.51
69624;BME280;56843;52.020;5.670;2023-06-24T02:28:44;102243.34;;;19.77;61.48
69624;BME280;56843;52.020;5.670;2023-06-24T02:30:16;102238.28;;;19.76;61.70
69624;BME280;56843;52.020;5.670;2023-06-24T02:31:47;102239.41;;;19.75;61.63
69624;BME280;56843;52.020;5.670;2023-06-24T02:33:18;102239.78;;;19.73;61.86
69624;BME280;56843;52.020;5.670;2023-06-24T02:34:49;102231.97;;;19.72;61.56
69624;BME280;56843;52.020;5.670;2023-06-24T02:36:19;102240.91;;;19.72;61.83
69624;BME280;56843;52.020;5.670;2023-06-24T02:37:50;102237.75;;;19.70;61.67
69624;BME280;56843;52.020;5.670;2023-06-24T02:39:21;102235.03;;;19.70;61.89
69624;BME280;56843;52.020;5.670;2023-06-24T02:40:54;102240.81;;;19.69;61.89
69624;BME280;56843;52.020;5.670;2023-06-24T02:42:25;102239.22;;;19.68;61.54
69624;BME280;56843;52.020;5.670;2023-06-24T02:43:55;102245.81;;;19.67;61.62
69624;BME280;56843;52.020;5.670;2023-06-24T02:45:26;102238.00;;;19.65;61.70
69624;BME280;56843;52.020;5.670;2023-06-24T02:46:57;102238.00;;;19.65;61.87
69624;BME280;56843;52.020;5.670;2023-06-24T02:48:29;102226.41;;;19.65;61.93
69624;BME280;56843;52.020;5.670;2023-06-24T02:50:03;102232.94;;;19.64;61.85
69624;BME280;56843;52.020;5.670;2023-06-24T02:51:35;102232.16;;;19.63;61.80
69624;BME280;56843;52.020;5.670;2023-06-24T02:53:07;102235.22;;;19.62;61.95
69624;BME280;56843;52.020;5.670;2023-06-24T02:54:41;102233.97;;;19.59;62.25
69624;BME280;56843;52.020;5.670;2023-06-24T02:56:30;102232.44;;;19.58;61.97
69624;BME280;56843;52.020;5.670;2023-06-24T02:58:02;102225.41;;;19.57;62.53
69624;BME280;56843;52.020;5.670;2023-06-24T02:59:52;102233.91;;;19.56;62.31
69624;BME280;56843;52.020;5.670;2023-06-24T03:01:24;102229.25;;;19.56;62.46
69624;BME280;56843;52.020;5.670;2023-06-24T03:02:57;102227.34;;;19.57;62.08
69624;BME280;56843;52.020;5.670;2023-06-24T03:04:28;102224.97;;;19.55;62.06
69624;BME280;56843;52.020;5.670;2023-06-24T03:06:00;102226.09;;;19.54;62.10
69624;BME280;56843;52.020;5.670;2023-06-24T03:07:34;102231.53;;;19.54;61.98
69624;BME280;56843;52.020;5.670;2023-06-24T03:09:06;102225.34;;;19.54;62.43
69624;BME280;56843;52.020;5.670;2023-06-24T03:10:40;102222.63;;;19.54;62.20
69624;BME280;56843;52.020;5.670;2023-06-24T03:12:17;102226.44;;;19.53;62.25
69624;BME280;56843;52.020;5.670;2023-06-24T03:13:48;102222.94;;;19.52;62.59
69624;BME280;56843;52.020;5.670;2023-06-24T03:15:27;102231.41;;;19.51;62.69
69624;BME280;56843;52.020;5.670;2023-06-24T03:16:59;102236.03;;;19.50;62.37
69624;BME280;56843;52.020;5.670;2023-06-24T03:18:30;102242.25;;;19.51;62.47
69624;BME280;56843;52.020;5.670;2023-06-24T03:20:01;102230.63;;;19.50;62.30
69624;BME280;56843;52.020;5.670;2023-06-24T03:21:33;102238.75;;;19.50;62.57
69624;BME280;56843;52.020;5.670;2023-06-24T03:23:11;102237.19;;;19.49;62.85
69624;BME280;56843;52.020;5.670;2023-06-24T03:24:43;102242.94;;;19.48;62.63
69624;BME280;56843;52.020;5.670;2023-06-24T03:26:14;102242.19;;;19.47;62.85
69624;BME280;56843;52.020;5.670;2023-06-24T03:27:46;102239.47;;;19.47;62.88
69624;BME280;56843;52.020;5.670;2023-06-24T03:29:16;102239.47;;;19.47;62.85
69624;BME280;56843;52.020;5.670;2023-06-24T03:31:03;102242.84;;;19.44;62.73
69624;BME280;56843;52.020;5.670;2023-06-24T03:32:33;102236.66;;;19.44;62.60
69624;BME280;56843;52.020;5.670;2023-06-24T03:34:05;102236.66;;;19.44;62.91
69624;BME280;56843;52.020;5.670;2023-06-24T03:35:36;102230.09;;;19.45;62.74
69624;BME280;56843;52.020;5.670;2023-06-24T03:37:10;102235.84;;;19.43;63.10
69624;BME280;56843;52.020;5.670;2023-06-24T03:38:43;102242.06;;;19.44;62.85
69624;BME280;56843;52.020;5.670;2023-06-24T03:40:14;102236.66;;;19.44;62.86
69624;BME280;56843;52.020;5.670;2023-06-24T03:41:44;102237.44;;;19.44;62.63
69624;BME280;56843;52.020;5.670;2023-06-24T03:43:16;102239.72;;;19.42;63.02
69624;BME280;56843;52.020;5.670;2023-06-24T03:44:47;102236.66;;;19.44;62.72
69624;BME280;56843;52.020;5.670;2023-06-24T03:46:17;102241.28;;;19.43;62.60
69624;BME280;56843;52.020;5.670;2023-06-24T03:47:48;102231.59;;;19.42;62.68
69624;BME280;56843;52.020;5.670;2023-06-24T03:49:18;102237.34;;;19.41;62.72
69624;BME280;56843;52.020;5.670;2023-06-24T03:50:49;102231.94;;;19.41;62.79
69624;BME280;56843;52.020;5.670;2023-06-24T03:52:19;102235.78;;;19.40;62.79
69624;BME280;56843;52.020;5.670;2023-06-24T03:53:50;102235.78;;;19.40;62.84
69624;BME280;56843;52.020;5.670;2023-06-24T03:55:21;102233.06;;;19.40;62.98
69624;BME280;56843;52.020;5.670;2023-06-24T03:56:52;102233.06;;;19.40;63.03
69624;BME280;56843;52.020;5.670;2023-06-24T03:58:22;102233.06;;;19.40;63.05
69624;BME280;56843;52.020;5.670;2023-06-24T03:59:53;102236.88;;;19.39;63.05
69624;BME280;56843;52.020;5.670;2023-06-24T04:01:25;102238.03;;;19.38;63.01
69624;BME280;56843;52.020;5.670;2023-06-24T04:02:55;102232.63;;;19.38;63.16
69624;BME280;56843;52.020;5.670;2023-06-24T04:04:26;102237.69;;;19.39;62.69
69624;BME280;56843;52.020;5.670;2023-06-24T04:05:57;102242.31;;;19.39;63.08
69624;BME280;56843;52.020;5.670;2023-06-24T04:07:27;102234.53;;;19.37;62.83
69624;BME280;56843;52.020;5.670;2023-06-24T04:09:01;102238.03;;;19.38;63.07
69624;BME280;56843;52.020;5.670;2023-06-24T04:10:32;102251.59;;;19.38;62.59
69624;BME280;56843;52.020;5.670;2023-06-24T04:12:03;102253.50;;;19.37;62.75
69624;BME280;56843;52.020;5.670;2023-06-24T04:13:38;102249.69;;;19.38;62.91
69624;BME280;56843;52.020;5.670;2023-06-24T04:15:09;102246.53;;;19.36;62.76
69624;BME280;56843;52.020;5.670;2023-06-24T04:16:40;102250.78;;;19.37;62.88
69624;BME280;56843;52.020;5.670;2023-06-24T04:18:10;102251.59;;;19.38;62.89
69624;BME280;56843;52.020;5.670;2023-06-24T04:19:41;102251.59;;;19.38;62.98
69624;BME280;56843;52.020;5.670;2023-06-24T04:21:12;102254.31;;;19.38;62.71
69624;BME280;56843;52.020;5.670;2023-06-24T04:22:44;102255.09;;;19.38;62.79
69624;BME280;56843;52.020;5.670;2023-06-24T04:24:15;102249.31;;;19.40;62.71
69624;BME280;56843;52.020;5.670;2023-06-24T04:25:46;102256.66;;;19.39;62.76
69624;BME280;56843;52.020;5.670;2023-06-24T04:27:16;102253.63;;;19.41;62.61
69624;BME280;56843;52.020;5.670;2023-06-24T04:28:47;102254.38;;;19.41;62.40
69624;BME280;56843;52.020;5.670;2023-06-24T04:30:17;102252.47;;;19.42;62.69
69624;BME280;56843;52.020;5.670;2023-06-24T04:31:48;102257.09;;;19.41;62.31
69624;BME280;56843;52.020;5.670;2023-06-24T04:33:18;102252.81;;;19.40;62.18
69624;BME280;56843;52.020;5.670;2023-06-24T04:34:49;102252.81;;;19.40;62.55
69624;BME280;56843;52.020;5.670;2023-06-24T04:36:20;102253.94;;;19.39;62.24
69624;BME280;56843;52.020;5.670;2023-06-24T04:37:51;102257.81;;;19.38;62.52
69624;BME280;56843;52.020;5.670;2023-06-24T04:39:22;102257.81;;;19.38;62.53
69624;BME280;56843;52.020;5.670;2023-06-24T04:40:52;102255.09;;;19.38;62.22
69624;BME280;56843;52.020;5.670;2023-06-24T04:42:23;102253.16;;;19.39;62.44
69624;BME280;56843;52.020;5.670;2023-06-24T04:43:54;102255.84;;;19.39;62.09
69624;BME280;56843;52.020;5.670;2023-06-24T04:45:24;102253.16;;;19.39;62.42
69624;BME280;56843;52.020;5.670;2023-06-24T04:46:55;102255.84;;;19.39;62.16
69624;BME280;56843;52.020;5.670;2023-06-24T04:48:26;102250.78;;;19.37;62.12
69624;BME280;56843;52.020;5.670;2023-06-24T04:49:56;102246.16;;;19.38;62.09
69624;BME280;56843;52.020;5.670;2023-06-24T04:51:27;102249.69;;;19.38;61.95
69624;BME280;56843;52.020;5.670;2023-06-24T04:52:58;102255.09;;;19.38;61.88
69624;BME280;56843;52.020;5.670;2023-06-24T04:54:28;102249.69;;;19.38;62.13
69624;BME280;56843;52.020;5.670;2023-06-24T04:55:59;102248.88;;;19.38;62.00
69624;BME280;56843;52.020;5.670;2023-06-24T04:57:31;102249.69;;;19.38;62.32
69624;BME280;56843;52.020;5.670;2023-06-24T04:59:01;102246.16;;;19.38;62.24
69624;BME280;56843;52.020;5.670;2023-06-24T05:00:32;102251.59;;;19.38;62.17
69624;BME280;56843;52.020;5.670;2023-06-24T05:02:03;102250.13;;;19.40;61.82
69624;BME280;56843;52.020;5.670;2023-06-24T05:03:33;102259.78;;;19.41;61.79
69624;BME280;56843;52.020;5.670;2023-06-24T05:05:04;102258.69;;;19.42;62.09
69624;BME280;56843;52.020;5.670;2023-06-24T05:06:35;102264.91;;;19.43;62.07
69624;BME280;56843;52.020;5.670;2023-06-24T05:08:06;102257.53;;;19.43;62.21
69624;BME280;56843;52.020;5.670;2023-06-24T05:09:37;102261.81;;;19.44;61.72
69624;BME280;56843;52.020;5.670;2023-06-24T05:11:08;102263.06;;;19.47;61.74
69624;BME280;56843;52.020;5.670;2023-06-24T05:12:38;102263.84;;;19.47;61.89
69624;BME280;56843;52.020;5.670;2023-06-24T05:14:09;102253.78;;;19.48;61.72
69624;BME280;56843;52.020;5.670;2023-06-24T05:15:40;102263.13;;;19.50;61.55
69624;BME280;56843;52.020;5.670;2023-06-24T05:17:10;102258.94;;;19.53;61.82
69624;BME280;56843;52.020;5.670;2023-06-24T05:18:41;102260.56;;;19.54;61.73
69624;BME280;56843;52.020;5.670;2023-06-24T05:20:12;102261.00;;;19.56;61.71
69624;BME280;56843;52.020;5.670;2023-06-24T05:21:42;102260.28;;;19.59;61.38
69624;BME280;56843;52.020;5.670;2023-06-24T05:23:13;102253.38;;;19.61;61.16
69624;BME280;56843;52.020;5.670;2023-06-24T05:24:43;102253.06;;;19.63;61.45
69624;BME280;56843;52.020;5.670;2023-06-24T05:26:14;102255.84;;;19.66;61.14
69624;BME280;56843;52.020;5.670;2023-06-24T05:27:45;102258.22;;;19.68;61.37
69624;BME280;56843;52.020;5.670;2023-06-24T05:29:16;102259.06;;;19.72;61.18
69624;BME280;56843;52.020;5.670;2023-06-24T05:30:46;102257.59;;;19.74;60.77
69624;BME280;56843;52.020;5.670;2023-06-24T05:32:17;102258.81;;;19.77;60.80
69624;BME280;56843;52.020;5.670;2023-06-24T05:33:50;102263.56;;;19.80;60.98
69624;BME280;56843;52.020;5.670;2023-06-24T05:35:20;102258.56;;;19.82;60.85
69624;BME280;56843;52.020;5.670;2023-06-24T05:36:51;102271.44;;;19.85;60.74
69624;BME280;56843;52.020;5.670;2023-06-24T05:38:21;102270.72;;;19.88;60.78
69624;BME280;56843;52.020;5.670;2023-06-24T05:39:52;102275.47;;;19.91;60.73
69624;BME280;56843;52.020;5.670;2023-06-24T05:41:23;102259.63;;;19.93;60.56
69624;BME280;56843;52.020;5.670;2023-06-24T05:42:53;102272.50;;;19.96;60.15
69624;BME280;56843;52.020;5.670;2023-06-24T05:44:24;102262.59;;;20.04;60.40
69624;BME280;56843;52.020;5.670;2023-06-24T05:45:54;102270.47;;;20.09;60.19
69624;BME280;56843;52.020;5.670;2023-06-24T05:47:25;102266.78;;;20.17;59.84
69624;BME280;56843;52.020;5.670;2023-06-24T05:48:55;102271.31;;;20.28;59.33
69624;BME280;56843;52.020;5.670;2023-06-24T05:50:26;102281.00;;;20.45;58.89
69624;BME280;56843;52.020;5.670;2023-06-24T05:51:56;102281.13;;;20.68;58.59
69624;BME280;56843;52.020;5.670;2023-06-24T05:53:27;102283.25;;;20.93;58.16
69624;BME280;56843;52.020;5.670;2023-06-24T05:54:58;102279.13;;;21.18;57.54
69624;BME280;56843;52.020;5.670;2023-06-24T05:56:28;102281.50;;;21.43;56.96
69624;BME280;56843;52.020;5.670;2023-06-24T05:57:59;102282.75;;;21.68;56.32
69624;BME280;56843;52.020;5.670;2023-06-24T05:59:30;102274.63;;;21.90;55.65
69624;BME280;56843;52.020;5.670;2023-06-24T06:01:00;102278.88;;;22.14;54.89
69624;BME280;56843;52.020;5.670;2023-06-24T06:02:31;102277.69;;;22.38;54.41
69624;BME280;56843;52.020;5.670;2023-06-24T06:04:02;102277.66;;;22.60;53.97
69624;BME280;56843;52.020;5.670;2023-06-24T06:05:32;102280.63;;;22.82;53.58
69624;BME280;56843;52.020;5.670;2023-06-24T06:07:03;102275.09;;;23.04;53.29
69624;BME280;56843;52.020;5.670;2023-06-24T06:08:34;102275.69;;;23.24;52.61
69624;BME280;56843;52.020;5.670;2023-06-24T06:10:05;102275.56;;;23.43;52.76
69624;BME280;56843;52.020;5.670;2023-06-24T06:11:36;102278.03;;;23.59;52.29
69624;BME280;56843;52.020;5.670;2023-06-24T06:13:07;102280.06;;;23.69;52.23
69624;BME280;56843;52.020;5.670;2023-06-24T06:14:37;102283.28;;;23.78;52.30
69624;BME280;56843;52.020;5.670;2023-06-24T06:16:08;102284.13;;;23.85;52.11
69624;BME280;56843;52.020;5.670;2023-06-24T06:17:38;102289.31;;;23.97;51.97
69624;BME280;56843;52.020;5.670;2023-06-24T06:19:09;102285.91;;;24.11;51.43
69624;BME280;56843;52.020;5.670;2023-06-24T06:20:39;102286.41;;;24.27;51.19
69624;BME280;56843;52.020;5.670;2023-06-24T06:22:10;102280.28;;;24.41;50.91
69624;BME280;56843;52.020;5.670;2023-06-24T06:23:40;102284.66;;;24.56;50.67
69624;BME280;56843;52.020;5.670;2023-06-24T06:25:11;102283.19;;;24.69;50.11
69624;BME280;56843;52.020;5.670;2023-06-24T06:26:42;102282.47;;;24.83;49.94
69624;BME280;56843;52.020;5.670;2023-06-24T06:28:13;102289.94;;;24.96;49.55
69624;BME280;56843;52.020;5.670;2023-06-24T06:29:44;102294.66;;;25.06;49.39
69624;BME280;56843;52.020;5.670;2023-06-24T06:31:15;102289.22;;;25.13;49.63
69624;BME280;56843;52.020;5.670;2023-06-24T06:32:45;102286.53;;;25.24;49.46
69624;BME280;56843;52.020;5.670;2023-06-24T06:34:16;102289.28;;;25.34;49.19
69624;BME280;56843;52.020;5.670;2023-06-24T06:35:46;102290.50;;;25.44;48.92
69624;BME280;56843;52.020;5.670;2023-06-24T06:37:17;102290.09;;;25.52;48.66
69624;BME280;56843;52.020;5.670;2023-06-24T06:38:47;102291.31;;;25.62;48.37
69624;BME280;56843;52.020;5.670;2023-06-24T06:40:19;102282.69;;;25.71;48.34
69624;BME280;56843;52.020;5.670;2023-06-24T06:41:49;102283.47;;;25.78;48.11
69624;BME280;56843;52.020;5.670;2023-06-24T06:43:20;102289.75;;;25.89;48.01
69624;BME280;56843;52.020;5.670;2023-06-24T06:44:51;102281.53;;;25.96;47.92
69624;BME280;56843;52.020;5.670;2023-06-24T06:46:22;102291.34;;;26.04;47.70
69624;BME280;56843;52.020;5.670;2023-06-24T06:47:52;102287.81;;;26.11;47.44
69624;BME280;56843;52.020;5.670;2023-06-24T06:49:23;102284.66;;;26.19;47.18
69624;BME280;56843;52.020;5.670;2023-06-24T06:50:54;102290.91;;;26.27;47.00
69624;BME280;56843;52.020;5.670;2023-06-24T06:52:24;102282.66;;;26.34;47.09
69624;BME280;56843;52.020;5.670;2023-06-24T06:53:55;102281.09;;;26.40;46.73
69624;BME280;56843;52.020;5.670;2023-06-24T06:55:26;102276.78;;;26.46;46.60
69624;BME280;56843;52.020;5.670;2023-06-24T06:57:03;102280.31;;;26.54;46.16
69624;BME280;56843;52.020;5.670;2023-06-24T06:58:34;102279.94;;;26.55;46.38
69624;BME280;56843;52.020;5.670;2023-06-24T07:00:05;102281.06;;;26.61;46.06
69624;BME280;56843;52.020;5.670;2023-06-24T07:01:35;102285.38;;;26.66;46.16
69624;BME280;56843;52.020;5.670;2023-06-24T07:03:06;102287.69;;;26.71;45.96
69624;BME280;56843;52.020;5.670;2023-06-24T07:04:36;102292.75;;;26.76;45.64
69624;BME280;56843;52.020;5.670;2023-06-24T07:06:06;102298.63;;;26.81;45.90
69624;BME280;56843;52.020;5.670;2023-06-24T07:07:37;102290.38;;;26.85;45.59
69624;BME280;56843;52.020;5.670;2023-06-24T07:09:08;102297.41;;;26.89;45.33
69624;BME280;56843;52.020;5.670;2023-06-24T07:10:39;102293.09;;;26.92;45.50
69624;BME280;56843;52.020;5.670;2023-06-24T07:12:10;102291.91;;;26.96;45.64
69624;BME280;56843;52.020;5.670;2023-06-24T07:13:40;102293.06;;;26.99;45.34
69624;BME280;56843;52.020;5.670;2023-06-24T07:15:11;102302.84;;;27.04;45.32
69624;BME280;56843;52.020;5.670;2023-06-24T07:16:42;102300.88;;;27.08;45.13
69624;BME280;56843;52.020;5.670;2023-06-24T07:18:12;102308.31;;;27.11;45.35
69624;BME280;56843;52.020;5.670;2023-06-24T07:19:43;102313.38;;;27.16;45.18
69624;BME280;56843;52.020;5.670;2023-06-24T07:21:13;102308.66;;;27.20;45.51
69624;BME280;56843;52.020;5.670;2023-06-24T07:22:44;102305.50;;;27.21;45.08
69624;BME280;56843;52.020;5.670;2023-06-24T07:24:14;102307.44;;;27.24;45.06
69624;BME280;56843;52.020;5.670;2023-06-24T07:25:45;102305.88;;;27.27;44.99
69624;BME280;56843;52.020;5.670;2023-06-24T07:27:15;102310.56;;;27.30;44.57
69624;BME280;56843;52.020;5.670;2023-06-24T07:28:46;102306.66;;;27.31;44.86
69624;BME280;56843;52.020;5.670;2023-06-24T07:30:16;102310.16;;;27.35;44.58
69624;BME280;56843;52.020;5.670;2023-06-24T07:31:47;102302.28;;;27.37;44.27
69624;BME280;56843;52.020;5.670;2023-06-24T07:33:17;102310.09;;;27.38;44.13
69624;BME280;56843;52.020;5.670;2023-06-24T07:34:48;102312.44;;;27.40;44.63
69624;BME280;56843;52.020;5.670;2023-06-24T07:36:18;102316.34;;;27.42;44.63
69624;BME280;56843;52.020;5.670;2023-06-24T07:37:49;102306.53;;;27.45;44.17
69624;BME280;56843;52.020;5.670;2023-06-24T07:39:20;102305.38;;;27.46;44.23
69624;BME280;56843;52.020;5.670;2023-06-24T07:40:50;102306.91;;;27.47;44.21
69624;BME280;56843;52.020;5.670;2023-06-24T07:42:21;102308.50;;;27.48;44.44
69624;BME280;56843;52.020;5.670;2023-06-24T07:43:51;102308.06;;;27.49;43.88
69624;BME280;56843;52.020;5.670;2023-06-24T07:45:22;102302.59;;;27.49;43.93
69624;BME280;56843;52.020;5.670;2023-06-24T07:46:53;102304.91;;;27.51;44.20
69624;BME280;56843;52.020;5.670;2023-06-24T07:48:24;102303.38;;;27.50;44.14
69624;BME280;56843;52.020;5.670;2023-06-24T07:49:54;102302.97;;;27.51;44.31
69624;BME280;56843;52.020;5.670;2023-06-24T07:51:25;102309.66;;;27.50;44.23
69624;BME280;56843;52.020;5.670;2023-06-24T07:52:55;102306.91;;;27.50;44.38
69624;BME280;56843;52.020;5.670;2023-06-24T07:54:25;102303.75;;;27.52;44.13
69624;BME280;56843;52.020;5.670;2023-06-24T07:55:56;102302.97;;;27.51;44.20
69624;BME280;56843;52.020;5.670;2023-06-24T07:57:27;102299.06;;;27.52;44.15
69624;BME280;56843;52.020;5.670;2023-06-24T07:58:58;102304.16;;;27.50;44.13
69624;BME280;56843;52.020;5.670;2023-06-24T08:00:28;102297.88;;;27.50;44.07
69624;BME280;56843;52.020;5.670;2023-06-24T08:01:59;102299.84;;;27.49;44.41
69624;BME280;56843;52.020;5.670;2023-06-24T08:03:29;102299.06;;;27.49;44.30
69624;BME280;56843;52.020;5.670;2023-06-24T08:05:00;102303.38;;;27.46;44.54
69624;BME280;56843;52.020;5.670;2023-06-24T08:06:30;102296.34;;;27.45;44.35
69624;BME280;56843;52.020;5.670;2023-06-24T08:08:01;102292.81;;;27.45;44.12
69624;BME280;56843;52.020;5.670;2023-06-24T08:09:32;102283.03;;;27.44;44.44
69624;BME280;56843;52.020;5.670;2023-06-24T08:11:03;102291.28;;;27.44;44.15
69624;BME280;56843;52.020;5.670;2023-06-24T08:12:34;102287.75;;;27.43;44.41
69624;BME280;56843;52.020;5.670;2023-06-24T08:14:04;102292.44;;;27.43;44.27
69624;BME280;56843;52.020;5.670;2023-06-24T08:15:35;102290.91;;;27.42;44.82